createdAt,value
2024-03-14T00:01:35.078Z,4.90
2024-03-14T00:04:05.164Z,4.92
2024-03-14T00:06:32.928Z,4.96
2024-03-14T00:09:02.450Z,4.92
2024-03-14T00:11:34.084Z,4.89
2024-03-14T00:14:02.145Z,4.85
2024-03-14T00:16:29.832Z,4.84
2024-03-14T00:19:01.267Z,4.86
2024-03-14T00:21:29.165Z,4.84
2024-03-14T00:23:58.192Z,4.82
2024-03-14T00:26:25.928Z,4.79
2024-03-14T00:28:53.999Z,4.72
2024-03-14T00:31:21.622Z,4.65
2024-03-14T00:33:49.413Z,4.68
2024-03-14T00:36:17.564Z,4.71
2024-03-14T00:38:45.756Z,4.76
2024-03-14T00:41:16.940Z,4.73
2024-03-14T00:43:44.854Z,4.67
2024-03-14T00:46:13.202Z,4.69
2024-03-14T00:48:41.634Z,4.77
2024-03-14T00:51:11.197Z,4.76
2024-03-14T00:53:39.008Z,4.72
2024-03-14T00:56:06.689Z,4.67
2024-03-14T00:58:34.402Z,4.68
2024-03-14T01:01:02.818Z,4.69
2024-03-14T01:03:32.119Z,4.70
2024-03-14T01:06:00.361Z,4.68
2024-03-14T01:08:30.516Z,4.62
2024-03-14T01:10:58.227Z,4.57
2024-03-14T01:13:27.183Z,4.51
2024-03-14T01:15:55.092Z,4.57
2024-03-14T01:18:23.487Z,4.67
2024-03-14T01:20:51.591Z,4.78
2024-03-14T01:23:19.669Z,4.86
2024-03-14T01:25:47.584Z,4.91
2024-03-14T01:28:15.511Z,4.98
2024-03-14T01:30:43.817Z,5.02
2024-03-14T01:33:11.689Z,5.05
2024-03-14T01:35:40.186Z,5.10
2024-03-14T01:38:08.391Z,5.12
2024-03-14T01:40:36.997Z,5.06
2024-03-14T01:43:05.455Z,5.04
2024-03-14T01:45:34.052Z,4.91
2024-03-14T01:48:02.095Z,4.86
2024-03-14T01:50:30.035Z,4.86
2024-03-14T01:52:59.318Z,4.75
2024-03-14T01:55:28.433Z,4.75
2024-03-14T01:57:55.998Z,4.80
2024-03-14T02:00:31.137Z,4.84
2024-03-14T02:02:58.935Z,4.80
2024-03-14T02:05:33.690Z,4.78
2024-03-14T02:08:01.595Z,4.71
2024-03-14T02:10:29.942Z,4.69
2024-03-14T02:12:58.111Z,4.68
2024-03-14T02:15:25.965Z,4.63
2024-03-14T02:17:54.229Z,4.65
2024-03-14T02:20:22.739Z,4.62
2024-03-14T02:22:50.711Z,4.65
2024-03-14T02:25:19.329Z,4.59
2024-03-14T02:27:47.320Z,4.52
2024-03-14T02:30:14.924Z,4.48
2024-03-14T02:32:42.395Z,4.49
2024-03-14T02:35:10.925Z,4.52
2024-03-14T02:37:38.760Z,4.52
2024-03-14T02:40:07.889Z,4.48
2024-03-14T02:42:37.087Z,4.41
2024-03-14T02:45:09.488Z,4.39
2024-03-14T02:47:38.662Z,4.37
2024-03-14T02:50:10.475Z,4.39
2024-03-14T02:52:39.677Z,4.39
2024-03-14T02:55:09.070Z,4.34
2024-03-14T02:57:38.003Z,4.30
2024-03-14T03:00:12.522Z,4.36
2024-03-14T03:02:42.923Z,4.36
2024-03-14T03:05:11.746Z,4.30
2024-03-14T03:07:39.596Z,4.33
2024-03-14T03:10:08.294Z,4.34
2024-03-14T03:12:41.594Z,4.32
2024-03-14T03:15:12.559Z,4.31
2024-03-14T03:17:40.976Z,4.22
2024-03-14T03:20:13.205Z,4.15
2024-03-14T03:22:59.713Z,4.18
2024-03-14T03:25:27.535Z,4.19
2024-03-14T03:27:55.283Z,4.17
2024-03-14T03:30:23.543Z,4.20
2024-03-14T03:32:52.221Z,4.24
2024-03-14T03:35:24.975Z,4.13
2024-03-14T03:37:56.550Z,3.81
2024-03-14T03:40:24.785Z,4.15
2024-03-14T03:42:55.137Z,4.17
2024-03-14T03:45:23.735Z,4.13
2024-03-14T03:47:52.292Z,4.11
2024-03-14T03:50:19.980Z,4.12
2024-03-14T03:52:47.843Z,4.09
2024-03-14T03:55:18.630Z,4.22
2024-03-14T03:57:47.939Z,4.37
2024-03-14T04:00:38.104Z,4.38
2024-03-14T04:03:13.398Z,4.49
2024-03-14T04:05:41.289Z,4.63
2024-03-14T04:08:09.228Z,4.72
2024-03-14T04:10:37.678Z,4.72
2024-03-14T04:13:08.054Z,4.75
2024-03-14T04:15:36.315Z,4.80
2024-03-14T04:18:07.390Z,4.89
2024-03-14T04:20:39.732Z,4.70
2024-03-14T04:23:08.487Z,5.13
2024-03-14T04:25:36.155Z,5.31
2024-03-14T04:28:03.930Z,5.36
2024-03-14T04:30:31.615Z,5.50
2024-03-14T04:32:59.461Z,5.62
2024-03-14T04:35:27.250Z,5.72
2024-03-14T04:37:55.220Z,5.81
2024-03-14T04:40:23.650Z,5.84
2024-03-14T04:42:54.868Z,6.01
2024-03-14T04:45:23.470Z,6.14
2024-03-14T04:47:52.775Z,6.27
2024-03-14T04:50:20.741Z,6.35
2024-03-14T04:52:56.240Z,6.58
2024-03-14T04:55:25.015Z,6.79
2024-03-14T04:57:53.162Z,6.92
2024-03-14T05:00:21.410Z,6.82
2024-03-14T05:02:51.766Z,7.00
2024-03-14T05:05:20.127Z,7.19
2024-03-14T05:07:49.494Z,7.33
2024-03-14T05:10:21.506Z,7.42
2024-03-14T05:12:50.245Z,7.50
2024-03-14T05:15:18.494Z,7.56
2024-03-14T05:17:47.380Z,7.67
2024-03-14T05:20:17.330Z,7.71
2024-03-14T05:22:45.997Z,7.79
2024-03-14T05:25:15.189Z,7.91
2024-03-14T05:27:46.709Z,7.96
2024-03-14T05:30:15.333Z,8.07
2024-03-14T05:32:43.372Z,8.06
2024-03-14T05:35:11.845Z,8.08
2024-03-14T05:37:39.709Z,8.04
2024-03-14T05:40:11.887Z,8.24
2024-03-14T05:42:40.932Z,8.28
2024-03-14T05:45:10.821Z,8.33
2024-03-14T05:47:41.131Z,8.25
2024-03-14T05:50:11.911Z,8.44
2024-03-14T05:52:43.382Z,8.53
2024-03-14T05:55:11.972Z,8.60
2024-03-14T05:57:41.193Z,8.75
2024-03-14T06:00:13.992Z,8.85
2024-03-14T06:02:42.931Z,8.98
2024-03-14T06:05:11.832Z,9.10
2024-03-14T06:07:40.158Z,8.96
2024-03-14T06:10:08.623Z,9.32
2024-03-14T06:12:38.808Z,9.50
2024-03-14T06:15:08.723Z,9.60
2024-03-14T06:17:36.673Z,9.55
2024-03-14T06:20:09.076Z,9.60
2024-03-14T06:22:41.190Z,9.48
2024-03-14T06:25:09.015Z,9.47
2024-03-14T06:27:36.999Z,9.70
2024-03-14T06:30:13.615Z,9.81
2024-03-14T06:32:47.999Z,9.81
2024-03-14T06:35:16.854Z,9.85
2024-03-14T06:37:44.570Z,9.96
2024-03-14T06:40:15.725Z,10.07
2024-03-14T06:42:43.883Z,10.19
2024-03-14T06:45:12.295Z,9.94
2024-03-14T06:47:42.307Z,10.39
2024-03-14T06:50:11.681Z,10.58
2024-03-14T06:52:39.643Z,10.56
2024-03-14T06:55:11.843Z,10.95
2024-03-14T06:57:41.746Z,11.13
2024-03-14T07:00:14.340Z,11.35
2024-03-14T07:02:42.360Z,11.37
2024-03-14T07:05:10.819Z,11.46
2024-03-14T07:07:38.571Z,11.69
2024-03-14T07:10:10.093Z,11.79
2024-03-14T07:12:38.054Z,11.88
2024-03-14T07:15:07.506Z,11.91
2024-03-14T07:17:36.489Z,11.96
2024-03-14T07:20:26.470Z,12.05
2024-03-14T07:22:54.926Z,12.15
2024-03-14T07:25:22.779Z,12.12
2024-03-14T07:27:50.330Z,12.12
2024-03-14T07:30:19.296Z,12.17
2024-03-14T07:32:48.665Z,12.18
2024-03-14T07:35:17.044Z,11.90
2024-03-14T07:37:51.398Z,12.29
2024-03-14T07:40:19.935Z,12.27
2024-03-14T07:42:48.037Z,12.44
2024-03-14T07:45:19.745Z,12.49
2024-03-14T07:47:54.477Z,12.53
2024-03-14T07:50:24.808Z,12.46
2024-03-14T07:52:53.179Z,12.58
2024-03-14T07:55:20.954Z,12.66
2024-03-14T07:57:48.699Z,12.70
2024-03-14T08:00:17.337Z,12.55
2024-03-14T08:02:57.365Z,12.38
2024-03-14T08:05:27.393Z,12.07
2024-03-14T08:08:05.491Z,12.07
2024-03-14T08:10:48.184Z,12.47
2024-03-14T08:13:23.475Z,12.51
2024-03-14T08:15:56.131Z,12.53
2024-03-14T08:18:25.289Z,12.43
2024-03-14T08:20:58.099Z,12.48
2024-03-14T08:23:28.228Z,12.72
2024-03-14T08:25:57.862Z,12.61
2024-03-14T08:28:25.596Z,12.53
2024-03-14T08:30:53.935Z,12.41
2024-03-14T08:33:25.458Z,12.25
2024-03-14T08:35:55.531Z,12.25
2024-03-14T08:38:23.722Z,12.21
2024-03-14T08:40:51.824Z,12.47
2024-03-14T08:43:19.133Z,12.76
2024-03-14T08:45:47.508Z,12.71
2024-03-14T08:48:15.536Z,12.44
2024-03-14T08:50:43.309Z,12.57
2024-03-14T08:53:11.567Z,12.82
2024-03-14T08:55:47.005Z,13.03
2024-03-14T08:58:14.528Z,13.37
2024-03-14T09:00:42.268Z,13.68
2024-03-14T09:03:10.300Z,13.88
2024-03-14T09:05:39.039Z,13.91
2024-03-14T09:08:07.119Z,13.75
2024-03-14T09:10:35.234Z,13.80
2024-03-14T09:13:03.320Z,13.73
2024-03-14T09:15:31.861Z,13.76
2024-03-14T09:18:01.766Z,13.78
2024-03-14T09:20:29.913Z,13.85
2024-03-14T09:22:58.037Z,13.86
2024-03-14T09:25:30.382Z,13.85
2024-03-14T09:28:01.106Z,13.58
2024-03-14T09:30:29.722Z,13.33
2024-03-14T09:32:57.552Z,13.38
2024-03-14T09:35:29.180Z,13.17
2024-03-14T09:37:57.537Z,12.88
2024-03-14T09:40:25.761Z,13.03
2024-03-14T09:42:58.609Z,13.31
2024-03-14T09:45:32.197Z,13.55
2024-03-14T09:48:00.654Z,13.66
2024-03-14T09:50:29.401Z,13.57
2024-03-14T09:52:57.486Z,13.52
2024-03-14T09:55:25.969Z,13.76
2024-03-14T09:57:55.097Z,13.90
2024-03-14T10:00:26.409Z,13.96
2024-03-14T10:02:54.694Z,14.26
2024-03-14T10:05:23.277Z,14.19
2024-03-14T10:07:51.806Z,14.06
2024-03-14T10:10:20.870Z,14.01
2024-03-14T10:12:58.492Z,13.83
2024-03-14T10:15:28.610Z,14.09
2024-03-14T10:17:57.824Z,14.25
2024-03-14T10:20:26.181Z,14.58
2024-03-14T10:22:53.992Z,14.65
2024-03-14T10:25:37.127Z,14.69
2024-03-14T10:28:10.987Z,14.74
2024-03-14T10:30:50.385Z,14.82
2024-03-14T10:33:18.371Z,14.66
2024-03-14T10:35:47.700Z,14.54
2024-03-14T10:38:21.638Z,14.90
2024-03-14T10:40:50.351Z,14.75
2024-03-14T10:43:19.653Z,14.44
2024-03-14T10:45:54.260Z,14.22
2024-03-14T10:48:24.228Z,14.29
2024-03-14T10:50:56.008Z,14.42
2024-03-14T10:53:25.876Z,14.35
2024-03-14T10:55:56.575Z,14.36
2024-03-14T10:58:26.996Z,14.35
2024-03-14T11:00:57.154Z,14.29
2024-03-14T11:03:25.758Z,14.24
2024-03-14T11:05:57.056Z,14.24
2024-03-14T11:08:27.742Z,14.12
2024-03-14T11:10:58.057Z,13.98
2024-03-14T11:13:28.181Z,13.87
2024-03-14T11:16:00.670Z,13.90
2024-03-14T11:18:39.849Z,14.03
2024-03-14T11:21:13.816Z,14.31
2024-03-14T11:23:42.269Z,14.58
2024-03-14T11:26:16.753Z,14.73
2024-03-14T11:28:45.651Z,14.88
2024-03-14T11:31:14.931Z,15.00
2024-03-14T11:33:42.837Z,15.09
2024-03-14T11:36:12.814Z,15.04
2024-03-14T11:38:42.021Z,14.83
2024-03-14T11:41:15.613Z,14.37
2024-03-14T11:43:43.397Z,14.39
2024-03-14T11:46:15.713Z,14.37
2024-03-14T11:48:44.454Z,14.39
2024-03-14T11:51:12.905Z,14.76
2024-03-14T11:53:41.369Z,14.56
2024-03-14T11:56:12.466Z,14.24
2024-03-14T11:58:46.042Z,14.29
2024-03-14T12:01:21.610Z,14.45
2024-03-14T12:03:53.083Z,15.04
2024-03-14T12:06:21.732Z,16.31
2024-03-14T12:08:53.610Z,17.30
2024-03-14T12:11:22.232Z,17.41
2024-03-14T12:13:55.024Z,18.43
2024-03-14T12:16:23.640Z,18.51
2024-03-14T12:18:53.270Z,19.07
2024-03-14T12:21:21.544Z,19.00
2024-03-14T12:23:57.003Z,17.84
2024-03-14T12:26:25.287Z,17.07
2024-03-14T12:28:53.103Z,16.29
2024-03-14T12:31:21.265Z,15.92
2024-03-14T12:33:49.378Z,15.73
2024-03-14T12:36:20.416Z,15.87
2024-03-14T12:38:53.244Z,16.58
2024-03-14T12:41:21.482Z,16.47
2024-03-14T12:43:50.045Z,16.58
2024-03-14T12:46:20.914Z,16.82
2024-03-14T12:48:50.904Z,16.48
2024-03-14T12:51:25.871Z,16.13
2024-03-14T12:53:58.219Z,15.47
2024-03-14T12:56:27.113Z,15.20
2024-03-14T12:58:57.064Z,14.98
2024-03-14T13:01:33.516Z,14.88
2024-03-14T13:04:08.545Z,14.60
2024-03-14T13:06:37.802Z,14.05
2024-03-14T13:09:21.890Z,14.14
2024-03-14T13:12:21.117Z,14.89
2024-03-14T13:15:01.981Z,15.63
2024-03-14T13:17:33.789Z,15.36
2024-03-14T13:20:03.530Z,15.48
2024-03-14T13:22:31.858Z,15.32
2024-03-14T13:24:59.721Z,14.89
2024-03-14T13:27:27.188Z,14.69
2024-03-14T13:29:55.762Z,14.51
2024-03-14T13:32:23.653Z,14.14
2024-03-14T13:34:51.382Z,14.55
2024-03-14T13:37:19.603Z,14.41
2024-03-14T13:39:47.267Z,14.19
2024-03-14T13:42:17.612Z,13.86
2024-03-14T13:44:47.653Z,13.72
2024-03-14T13:47:24.094Z,13.78
2024-03-14T13:49:55.075Z,14.20
2024-03-14T13:52:23.443Z,14.07
2024-03-14T13:54:51.839Z,13.82
2024-03-14T13:57:21.043Z,13.79
2024-03-14T13:59:48.846Z,13.57
2024-03-14T14:02:18.882Z,13.49
2024-03-14T14:04:47.401Z,13.45
2024-03-14T14:07:15.062Z,13.58
2024-03-14T14:09:44.508Z,13.48
2024-03-14T14:12:12.759Z,13.51
2024-03-14T14:14:40.592Z,13.36
2024-03-14T14:17:09.629Z,13.34
2024-03-14T14:19:38.256Z,13.16
2024-03-14T14:22:09.878Z,13.09
2024-03-14T14:24:37.717Z,12.82
2024-03-14T14:27:05.209Z,12.79
2024-03-14T14:29:33.026Z,12.46
2024-03-14T14:32:01.345Z,12.57
2024-03-14T14:34:29.921Z,12.33
2024-03-14T14:36:58.532Z,12.15
2024-03-14T14:39:30.856Z,12.12
2024-03-14T14:42:00.624Z,11.99
2024-03-14T14:44:28.357Z,11.94
2024-03-14T14:46:55.984Z,11.82
2024-03-14T14:49:23.759Z,11.85
2024-03-14T14:51:51.349Z,11.84
2024-03-14T14:54:19.019Z,11.80
2024-03-14T14:56:46.558Z,11.45
2024-03-14T14:59:14.133Z,11.72
2024-03-14T15:01:41.927Z,11.68
2024-03-14T15:04:09.590Z,11.61
2024-03-14T15:06:37.565Z,11.50
2024-03-14T15:09:06.565Z,11.41
2024-03-14T15:11:35.118Z,11.54
2024-03-14T15:14:05.269Z,11.36
2024-03-14T15:16:33.379Z,11.30
2024-03-14T15:19:05.952Z,11.21
2024-03-14T15:21:34.469Z,11.07
2024-03-14T15:24:02.528Z,10.95
2024-03-14T15:26:30.753Z,10.77
2024-03-14T15:28:59.529Z,10.74
2024-03-14T15:31:27.965Z,10.61
2024-03-14T15:33:57.610Z,10.55
2024-03-14T15:36:28.107Z,10.42
2024-03-14T15:38:57.127Z,10.24
2024-03-14T15:41:25.390Z,10.08
2024-03-14T15:43:53.475Z,10.04
2024-03-14T15:46:23.974Z,9.83
2024-03-14T15:48:52.399Z,9.84
2024-03-14T15:51:21.305Z,9.64
2024-03-14T15:53:52.051Z,9.61
2024-03-14T15:56:19.814Z,9.60
2024-03-14T15:58:48.837Z,9.62
2024-03-14T16:01:17.241Z,9.60
2024-03-14T16:03:45.515Z,9.52
2024-03-14T16:06:13.234Z,9.43
2024-03-14T16:08:51.522Z,9.25
2024-03-14T16:11:23.435Z,9.21
2024-03-14T16:13:51.486Z,9.10
2024-03-14T16:16:19.112Z,9.00
2024-03-14T16:18:50.581Z,8.97
2024-03-14T16:21:19.512Z,9.02
2024-03-14T16:23:48.433Z,9.03
2024-03-14T16:26:20.339Z,8.96
2024-03-14T16:28:53.227Z,8.88
2024-03-14T16:31:23.816Z,8.81
2024-03-14T16:33:52.358Z,8.52
2024-03-14T16:36:22.861Z,8.52
2024-03-14T16:38:50.756Z,8.35
2024-03-14T16:41:18.638Z,8.20
2024-03-14T16:43:47.093Z,8.03
2024-03-14T16:46:17.246Z,8.20
2024-03-14T16:48:45.377Z,8.17
2024-03-14T16:51:14.007Z,8.07
2024-03-14T16:53:42.480Z,7.94
2024-03-14T16:56:13.935Z,7.77
2024-03-14T16:58:41.885Z,7.67
2024-03-14T17:01:10.873Z,7.64
2024-03-14T17:03:38.662Z,7.13
2024-03-14T17:06:06.820Z,7.35
2024-03-14T17:08:35.801Z,7.38
2024-03-14T17:11:04.576Z,7.41
2024-03-14T17:13:32.566Z,7.46
2024-03-14T17:16:02.415Z,7.56
2024-03-14T17:18:31.750Z,7.54
2024-03-14T17:21:01.825Z,7.65
2024-03-14T17:23:29.598Z,7.60
2024-03-14T17:25:57.510Z,7.70
2024-03-14T17:28:26.405Z,7.74
2024-03-14T17:30:55.798Z,7.54
2024-03-14T17:33:23.821Z,7.59
2024-03-14T17:35:52.487Z,7.72
2024-03-14T17:38:21.594Z,7.80
2024-03-14T17:40:49.425Z,7.84
2024-03-14T17:43:17.311Z,7.68
2024-03-14T17:45:44.958Z,7.59
2024-03-14T17:48:12.830Z,7.54
2024-03-14T17:50:41.534Z,7.20
2024-03-14T17:53:09.990Z,7.55
2024-03-14T17:55:38.307Z,7.50
2024-03-14T17:58:07.438Z,7.49
2024-03-14T18:00:35.200Z,7.60
2024-03-14T18:03:07.855Z,7.68
2024-03-14T18:05:37.341Z,7.67
2024-03-14T18:08:10.585Z,7.26
2024-03-14T18:10:38.620Z,7.50
2024-03-14T18:13:06.784Z,7.45
2024-03-14T18:15:34.480Z,7.36
2024-03-14T18:18:03.228Z,7.35
2024-03-14T18:20:32.393Z,7.30
2024-03-14T18:23:00.104Z,7.30
2024-03-14T18:25:27.777Z,7.36
2024-03-14T18:27:55.495Z,7.13
2024-03-14T18:30:24.262Z,7.47
2024-03-14T18:32:52.573Z,7.44
2024-03-14T18:35:24.757Z,7.41
2024-03-14T18:37:54.471Z,7.32
2024-03-14T18:40:31.781Z,7.28
2024-03-14T18:43:00.604Z,7.27
2024-03-14T18:45:29.192Z,7.32
2024-03-14T18:47:59.807Z,7.44
2024-03-14T18:50:27.878Z,7.45
2024-03-14T18:52:56.439Z,7.49
2024-03-14T18:55:24.895Z,7.59
2024-03-14T18:57:53.701Z,7.67
2024-03-14T19:00:27.398Z,7.62
2024-03-14T19:02:56.158Z,7.61
2024-03-14T19:05:28.885Z,7.71
2024-03-14T19:08:04.174Z,7.81
2024-03-14T19:10:34.591Z,7.97
2024-03-14T19:13:04.640Z,7.82
2024-03-14T19:15:33.455Z,7.72
2024-03-14T19:18:02.728Z,7.60
2024-03-14T19:20:30.820Z,7.53
2024-03-14T19:22:58.662Z,7.51
2024-03-14T19:25:26.825Z,7.53
2024-03-14T19:27:55.546Z,7.56
2024-03-14T19:30:25.634Z,7.57
2024-03-14T19:32:54.146Z,7.62
2024-03-14T19:35:21.942Z,7.57
2024-03-14T19:37:50.149Z,7.18
2024-03-14T19:40:18.181Z,7.47
2024-03-14T19:42:46.064Z,7.47
2024-03-14T19:45:14.178Z,7.51
2024-03-14T19:47:46.512Z,7.50
2024-03-14T19:50:14.922Z,7.41
2024-03-14T19:52:43.350Z,7.31
2024-03-14T19:55:11.246Z,7.35
2024-03-14T19:57:39.797Z,7.30
2024-03-14T20:00:12.105Z,7.30
2024-03-14T20:02:42.281Z,7.29
2024-03-14T20:05:10.969Z,7.30
2024-03-14T20:07:38.715Z,7.26
2024-03-14T20:10:07.083Z,7.17
2024-03-14T20:12:35.741Z,7.13
2024-03-14T20:15:04.315Z,7.12
2024-03-14T20:17:34.492Z,7.09
2024-03-14T20:20:12.557Z,7.05
2024-03-14T20:22:42.247Z,6.90
2024-03-14T20:25:14.248Z,7.04
2024-03-14T20:27:42.330Z,7.01
2024-03-14T20:30:14.280Z,7.00
2024-03-14T20:32:45.868Z,6.54
2024-03-14T20:35:17.032Z,7.04
2024-03-14T20:37:45.002Z,7.09
2024-03-14T20:40:15.991Z,7.12
2024-03-14T20:42:44.120Z,7.14
2024-03-14T20:45:15.313Z,7.16
2024-03-14T20:47:43.213Z,7.20
2024-03-14T20:50:13.242Z,7.29
2024-03-14T20:52:41.811Z,7.32
2024-03-14T20:58:08.989Z,7.54
2024-03-14T21:00:36.925Z,7.58
2024-03-14T21:03:04.913Z,7.71
2024-03-14T21:05:32.761Z,7.84
2024-03-14T21:08:05.918Z,7.93
2024-03-14T21:10:36.422Z,8.01
2024-03-14T21:13:09.408Z,7.96
2024-03-14T21:15:38.429Z,7.98
2024-03-14T21:18:12.884Z,7.99
2024-03-14T21:20:41.486Z,8.02
2024-03-14T21:23:09.161Z,7.97
2024-03-14T21:25:36.850Z,7.67
2024-03-14T21:28:04.672Z,7.97
2024-03-14T21:30:32.518Z,7.99
2024-03-14T21:33:00.884Z,7.95
2024-03-14T21:35:28.906Z,7.82
2024-03-14T21:37:57.199Z,7.68
2024-03-14T21:40:25.479Z,7.60
2024-03-14T21:42:53.803Z,7.69
2024-03-14T21:45:21.697Z,7.75
2024-03-14T21:47:49.985Z,7.70
2024-03-14T21:50:18.291Z,7.62
2024-03-14T21:52:46.746Z,7.57
2024-03-14T21:55:18.556Z,7.52
2024-03-14T21:57:49.025Z,7.42
2024-03-14T22:00:20.218Z,7.41
2024-03-14T22:02:51.004Z,7.47
2024-03-14T22:05:21.727Z,7.53
2024-03-14T22:07:49.602Z,7.60
2024-03-14T22:10:17.657Z,7.42
2024-03-14T22:12:46.528Z,7.78
2024-03-14T22:15:14.925Z,7.88
2024-03-14T22:17:46.035Z,8.00
2024-03-14T22:20:21.159Z,7.93
2024-03-14T22:22:50.496Z,7.97
2024-03-14T22:25:18.381Z,7.99
2024-03-14T22:27:46.472Z,8.00
2024-03-14T22:30:14.392Z,7.98
2024-03-14T22:32:42.297Z,8.02
2024-03-14T22:35:11.744Z,8.00
2024-03-14T22:37:39.500Z,8.05
2024-03-14T22:40:08.101Z,8.06
2024-03-14T22:42:36.443Z,8.02
2024-03-14T22:45:04.766Z,7.94
2024-03-14T22:47:33.732Z,7.90
2024-03-14T22:50:01.530Z,7.64
2024-03-14T22:52:30.885Z,7.53
2024-03-14T22:54:58.319Z,7.53
2024-03-14T22:57:25.979Z,7.57
2024-03-14T22:59:53.736Z,7.62
2024-03-14T23:02:22.222Z,7.73
2024-03-14T23:04:54.415Z,7.71
2024-03-14T23:07:22.871Z,7.57
2024-03-14T23:09:54.614Z,7.45
2024-03-14T23:12:22.367Z,7.35
2024-03-14T23:14:51.245Z,7.21
2024-03-14T23:17:19.436Z,7.05
2024-03-14T23:19:46.713Z,6.98
2024-03-14T23:22:15.364Z,6.99
2024-03-14T23:24:43.164Z,7.02
2024-03-14T23:27:10.896Z,7.10
2024-03-14T23:29:38.592Z,7.13
2024-03-14T23:32:06.593Z,7.27
2024-03-14T23:34:34.257Z,7.27
2024-03-14T23:37:02.025Z,7.24
2024-03-14T23:39:30.202Z,7.10
2024-03-14T23:41:58.751Z,7.05
2024-03-14T23:44:26.443Z,7.06
2024-03-14T23:46:54.380Z,7.11
2024-03-14T23:49:22.263Z,7.04
2024-03-14T23:51:49.851Z,7.07
2024-03-14T23:54:18.238Z,6.98
2024-03-14T23:56:46.134Z,7.07
2024-03-14T23:59:13.993Z,7.00
